Hamaritha — PF2437 — position and weather

sailwx.info

Track history (hours):
 
Tides and Currents Weather Stations Pressure Air Temp Water Temp Dewpoint Dewpoint Depression Visibility Wind Speed Wind Dir Waves Ship Positions

Hamaritha

Last reported at 2016-Aug-27 06:33 UTC. Time now 2016-Aug-28 00:29 UTC.
Position N 49°19' E 008°27'.

Length 86 m.

Type: Ship. MMSI: 244700691.

Date/timePositionNaut miles runAvg speedWind from/ knotsBaromVisibWave heightAir tempDewpointWater temp
2016-Aug-27 06:33N 49°19' E 008°27'18 8.8
2016-Aug-27 04:33N 49°02' E 008°18'5 0.1
2016-Aug-25 09:11N 48°58' E 008°15'3 4.7
2016-Aug-25 08:33N 49°01' E 008°18'1 1.5
2016-Aug-25 07:33N 49°01' E 008°20'0 0.0
2016-Aug-25 06:33N 49°01' E 008°20'0 0.0
2016-Aug-25 04:33N 49°01' E 008°20'0 0.0
2016-Aug-25 03:33N 49°01' E 008°20'0 0.0
2016-Aug-25 02:33N 49°01' E 008°20'0 0.0
2016-Aug-25 01:33N 49°01' E 008°20'0 0.0
2016-Aug-25 00:33N 49°01' E 008°20'0 0.0
2016-Aug-24 23:33N 49°01' E 008°20'0 0.0
2016-Aug-24 22:33N 49°01' E 008°20'0 0.0
2016-Aug-24 21:33N 49°01' E 008°20'0 0.0
2016-Aug-24 20:33N 49°01' E 008°20'0 0.0
2016-Aug-24 19:33N 49°01' E 008°20'0 0.0
2016-Aug-24 18:33N 49°01' E 008°20'0 0.0
2016-Aug-24 17:33N 49°01' E 008°20'0 0.0
2016-Aug-24 16:33N 49°01' E 008°20'0 0.0
2016-Aug-24 15:31N 49°01' E 008°20'0 0.0
2016-Aug-24 14:33N 49°01' E 008°20'0 0.0
2016-Aug-24 13:19N 49°01' E 008°20'0 0.0
2016-Aug-24 12:33N 49°01' E 008°20'0 0.0
2016-Aug-24 11:30N 49°01' E 008°20'1 0.7
2016-Aug-24 10:33N 49°01' E 008°19'3 2.9
2016-Aug-24 09:33N 49°04' E 008°19'3 3.4
2016-Aug-24 08:33N 49°07' E 008°22'3 3.4
2016-Aug-24 07:33N 49°10' E 008°22'4 3.5
2016-Aug-24 06:33N 49°14' E 008°23'6 2.9
2016-Aug-24 04:33N 49°19' E 008°28'4 3.7
2016-Aug-24 03:33N 49°22' E 008°30'94 2.2
2016-Aug-22 09:21N 50°41' E 007°11'3 4.1
2016-Aug-22 08:33N 50°43' E 007°07'4 4.2
2016-Aug-22 07:31N 50°47' E 007°03'5 3.4
2016-Aug-22 06:06N 50°51' E 006°60'2 4.2
2016-Aug-22 05:31N 50°52' E 007°03'3 3.1
2016-Aug-22 04:30N 50°54' E 006°59'16 0.4
2016-Aug-20 11:07N 51°10' E 006°50'2 3.4
2016-Aug-20 10:34N 51°09' E 006°48'3 3.1
2016-Aug-20 09:34N 51°11' E 006°44'2 2.3
2016-Aug-20 08:34N 51°13' E 006°46'17 1.2
2016-Aug-19 19:11N 51°30' E 006°42'2 2.8
2016-Aug-19 18:29N 51°31' E 006°42'3 3.8
2016-Aug-19 17:33N 51°35' E 006°40'3 3.1
2016-Aug-19 16:33N 51°36' E 006°36'3 3.4
2016-Aug-19 15:34N 51°39' E 006°34'27 4.2
2016-Aug-19 09:07N 51°52' E 005°56'3 4.7
2016-Aug-19 08:31N 51°51' E 005°52'5 4.2
2016-Aug-19 07:21N 51°53' E 005°44'4 5.3
2016-Aug-19 06:33N 51°54' E 005°38'10 4.2
2016-Aug-19 04:17N 51°50' E 005°24'3 3.9
2016-Aug-19 03:26N 51°49' E 005°18'5 1.1
2016-Aug-18 23:28N 51°49' E 005°11'0 0.0
2016-Aug-18 21:11N 51°49' E 005°11'1 1.2
2016-Aug-18 20:13N 51°49' E 005°09'4 5.4
2016-Aug-18 19:33N 51°49' E 005°03'6 6.3
2016-Aug-18 18:33N 51°49' E 004°53'6 6.0
2016-Aug-18 17:33N 51°46' E 004°45'7 6.9
2016-Aug-18 16:33N 51°42' E 004°35'16 5.4
2016-Aug-18 13:33N 51°36' E 004°11'7 6.9
2016-Aug-18 12:33N 51°29' E 004°13'5 4.6
2016-Aug-18 11:33N 51°25' E 004°14'7 6.8
2016-Aug-18 10:33N 51°19' E 004°19'2 1.8
2016-Aug-18 09:34N 51°17' E 004°20'2 2.1
2016-Aug-18 08:34N 51°16' E 004°17'1 0.5
2016-Aug-18 07:33N 51°16' E 004°16'1 1.2
2016-Aug-18 06:33N 51°16' E 004°14'0 0.0
2016-Aug-18 05:33N 51°16' E 004°14'0 0.0
2016-Aug-18 04:33N 51°16' E 004°14'0 0.2
2016-Aug-18 03:33N 51°15' E 004°14'0 0.0
2016-Aug-18 02:33N 51°15' E 004°14'0 0.0
2016-Aug-18 01:33N 51°15' E 004°14'0 0.0
2016-Aug-18 00:33N 51°15' E 004°14'0 0.0
2016-Aug-17 23:33N 51°15' E 004°14'0 0.0
2016-Aug-17 22:33N 51°15' E 004°14'0 0.0
2016-Aug-17 21:33N 51°15' E 004°14'0 0.0
2016-Aug-17 20:33N 51°15' E 004°14'0 0.0
2016-Aug-17 19:33N 51°15' E 004°14'0 0.0
2016-Aug-17 18:33N 51°15' E 004°14'2 2.0
2016-Aug-17 17:33N 51°16' E 004°17'3 2.9
2016-Aug-17 16:33N 51°14' E 004°21'7 7.0
2016-Aug-17 15:33N 51°08' E 004°19'1 1.0
2016-Aug-17 14:32N 51°07' E 004°18'0 0.0
2016-Aug-17 13:33N 51°07' E 004°18'0 0.0
2016-Aug-17 12:33N 51°07' E 004°18'0 0.0
2016-Aug-17 11:33N 51°07' E 004°18'0 0.0
2016-Aug-17 10:32N 51°07' E 004°18'0 0.0
2016-Aug-17 09:31N 51°07' E 004°18'0 0.0
2016-Aug-17 08:33N 51°07' E 004°18'2 1.8
2016-Aug-17 07:33N 51°06' E 004°20'  
Track history (hours):
 
Tides and Currents Weather Stations Pressure Air Temp Water Temp Dewpoint Dewpoint Depression Visibility Wind Speed Wind Dir Waves Ship Positions

Hamaritha

Last reported at 2016-Aug-27 06:33 UTC. Time now 2016-Aug-28 00:29 UTC.
Position N 49°19' E 008°27'.

Length 86 m.

Type: Ship. MMSI: 244700691.

Date/timePositionNaut miles runAvg speedWind from/ knotsBaromVisibWave heightAir tempDewpointWater temp
2016-Aug-27 06:33N 49°19' E 008°27'18 8.8
2016-Aug-27 04:33N 49°02' E 008°18'5 0.1
2016-Aug-25 09:11N 48°58' E 008°15'3 4.7
2016-Aug-25 08:33N 49°01' E 008°18'1 1.5
2016-Aug-25 07:33N 49°01' E 008°20'0 0.0
2016-Aug-25 06:33N 49°01' E 008°20'0 0.0
2016-Aug-25 04:33N 49°01' E 008°20'0 0.0
2016-Aug-25 03:33N 49°01' E 008°20'0 0.0
2016-Aug-25 02:33N 49°01' E 008°20'0 0.0
2016-Aug-25 01:33N 49°01' E 008°20'0 0.0
2016-Aug-25 00:33N 49°01' E 008°20'0 0.0
2016-Aug-24 23:33N 49°01' E 008°20'0 0.0
2016-Aug-24 22:33N 49°01' E 008°20'0 0.0
2016-Aug-24 21:33N 49°01' E 008°20'0 0.0
2016-Aug-24 20:33N 49°01' E 008°20'0 0.0
2016-Aug-24 19:33N 49°01' E 008°20'0 0.0
2016-Aug-24 18:33N 49°01' E 008°20'0 0.0
2016-Aug-24 17:33N 49°01' E 008°20'0 0.0
2016-Aug-24 16:33N 49°01' E 008°20'0 0.0
2016-Aug-24 15:31N 49°01' E 008°20'0 0.0
2016-Aug-24 14:33N 49°01' E 008°20'0 0.0
2016-Aug-24 13:19N 49°01' E 008°20'0 0.0
2016-Aug-24 12:33N 49°01' E 008°20'0 0.0
2016-Aug-24 11:30N 49°01' E 008°20'1 0.7
2016-Aug-24 10:33N 49°01' E 008°19'3 2.9
2016-Aug-24 09:33N 49°04' E 008°19'3 3.4
2016-Aug-24 08:33N 49°07' E 008°22'3 3.4
2016-Aug-24 07:33N 49°10' E 008°22'4 3.5
2016-Aug-24 06:33N 49°14' E 008°23'6 2.9
2016-Aug-24 04:33N 49°19' E 008°28'4 3.7
2016-Aug-24 03:33N 49°22' E 008°30'94 2.2
2016-Aug-22 09:21N 50°41' E 007°11'3 4.1
2016-Aug-22 08:33N 50°43' E 007°07'4 4.2
2016-Aug-22 07:31N 50°47' E 007°03'5 3.4
2016-Aug-22 06:06N 50°51' E 006°60'2 4.2
2016-Aug-22 05:31N 50°52' E 007°03'3 3.1
2016-Aug-22 04:30N 50°54' E 006°59'16 0.4
2016-Aug-20 11:07N 51°10' E 006°50'2 3.4
2016-Aug-20 10:34N 51°09' E 006°48'3 3.1
2016-Aug-20 09:34N 51°11' E 006°44'2 2.3
2016-Aug-20 08:34N 51°13' E 006°46'17 1.2
2016-Aug-19 19:11N 51°30' E 006°42'2 2.8
2016-Aug-19 18:29N 51°31' E 006°42'3 3.8
2016-Aug-19 17:33N 51°35' E 006°40'3 3.1
2016-Aug-19 16:33N 51°36' E 006°36'3 3.4
2016-Aug-19 15:34N 51°39' E 006°34'27 4.2
2016-Aug-19 09:07N 51°52' E 005°56'3 4.7
2016-Aug-19 08:31N 51°51' E 005°52'5 4.2
2016-Aug-19 07:21N 51°53' E 005°44'4 5.3
2016-Aug-19 06:33N 51°54' E 005°38'10 4.2
2016-Aug-19 04:17N 51°50' E 005°24'3 3.9
2016-Aug-19 03:26N 51°49' E 005°18'5 1.1
2016-Aug-18 23:28N 51°49' E 005°11'0 0.0
2016-Aug-18 21:11N 51°49' E 005°11'1 1.2
2016-Aug-18 20:13N 51°49' E 005°09'4 5.4
2016-Aug-18 19:33N 51°49' E 005°03'6 6.3
2016-Aug-18 18:33N 51°49' E 004°53'6 6.0
2016-Aug-18 17:33N 51°46' E 004°45'7 6.9
2016-Aug-18 16:33N 51°42' E 004°35'16 5.4
2016-Aug-18 13:33N 51°36' E 004°11'7 6.9
2016-Aug-18 12:33N 51°29' E 004°13'5 4.6
2016-Aug-18 11:33N 51°25' E 004°14'7 6.8
2016-Aug-18 10:33N 51°19' E 004°19'2 1.8
2016-Aug-18 09:34N 51°17' E 004°20'2 2.1
2016-Aug-18 08:34N 51°16' E 004°17'1 0.5
2016-Aug-18 07:33N 51°16' E 004°16'1 1.2
2016-Aug-18 06:33N 51°16' E 004°14'0 0.0
2016-Aug-18 05:33N 51°16' E 004°14'0 0.0
2016-Aug-18 04:33N 51°16' E 004°14'0 0.2
2016-Aug-18 03:33N 51°15' E 004°14'0 0.0
2016-Aug-18 02:33N 51°15' E 004°14'0 0.0
2016-Aug-18 01:33N 51°15' E 004°14'0 0.0
2016-Aug-18 00:33N 51°15' E 004°14'0 0.0
2016-Aug-17 23:33N 51°15' E 004°14'0 0.0
2016-Aug-17 22:33N 51°15' E 004°14'0 0.0
2016-Aug-17 21:33N 51°15' E 004°14'0 0.0
2016-Aug-17 20:33N 51°15' E 004°14'0 0.0
2016-Aug-17 19:33N 51°15' E 004°14'0 0.0
2016-Aug-17 18:33N 51°15' E 004°14'2 2.0
2016-Aug-17 17:33N 51°16' E 004°17'3 2.9
2016-Aug-17 16:33N 51°14' E 004°21'7 7.0
2016-Aug-17 15:33N 51°08' E 004°19'1 1.0
2016-Aug-17 14:32N 51°07' E 004°18'0 0.0
2016-Aug-17 13:33N 51°07' E 004°18'0 0.0
2016-Aug-17 12:33N 51°07' E 004°18'0 0.0
2016-Aug-17 11:33N 51°07' E 004°18'0 0.0
2016-Aug-17 10:32N 51°07' E 004°18'0 0.0
2016-Aug-17 09:31N 51°07' E 004°18'0 0.0
2016-Aug-17 08:33N 51°07' E 004°18'2 1.8
2016-Aug-17 07:33N 51°06' E 004°20'  

Dump ship's entire track history